createdAt,value
2023-05-15T00:00:15.221Z,14.75
2023-05-15T00:01:15.214Z,14.84
2023-05-15T00:02:15.278Z,14.84
2023-05-15T00:03:15.343Z,14.83
2023-05-15T00:04:15.258Z,14.86
2023-05-15T00:05:15.240Z,14.92
2023-05-15T00:06:15.238Z,14.89
2023-05-15T00:07:15.213Z,14.83
2023-05-15T00:08:15.213Z,14.91
2023-05-15T00:09:15.216Z,14.83
2023-05-15T00:10:15.212Z,14.80
2023-05-15T00:11:15.217Z,14.84
2023-05-15T00:12:15.215Z,14.78
2023-05-15T00:13:15.224Z,14.73
2023-05-15T00:14:15.212Z,14.77
2023-05-15T00:15:15.218Z,14.77
2023-05-15T00:16:15.287Z,14.77
2023-05-15T00:17:15.218Z,14.75
2023-05-15T00:18:15.287Z,14.75
2023-05-15T00:19:15.361Z,14.80
2023-05-15T00:20:15.218Z,14.77
2023-05-15T00:21:15.219Z,14.77
2023-05-15T00:22:15.248Z,14.70
2023-05-15T00:23:15.218Z,14.77
2023-05-15T00:24:15.226Z,14.77
2023-05-15T00:25:15.229Z,14.88
2023-05-15T00:26:15.222Z,14.75
2023-05-15T00:27:15.226Z,14.73
2023-05-15T00:28:15.228Z,14.70
2023-05-15T00:29:15.220Z,14.65
2023-05-15T00:30:15.219Z,14.75
2023-05-15T00:31:15.237Z,14.62
2023-05-15T00:32:15.240Z,14.60
2023-05-15T00:33:15.224Z,14.54
2023-05-15T00:34:15.221Z,14.51
2023-05-15T00:35:15.228Z,14.39
2023-05-15T00:36:15.223Z,14.45
2023-05-15T00:37:15.228Z,14.33
2023-05-15T00:38:15.243Z,14.40
2023-05-15T00:39:15.228Z,14.42
2023-05-15T00:40:15.222Z,14.35
2023-05-15T00:41:15.229Z,14.24
2023-05-15T00:42:15.231Z,14.22
2023-05-15T00:43:15.258Z,14.15
2023-05-15T00:44:15.232Z,14.25
2023-05-15T00:45:15.230Z,14.21
2023-05-15T00:46:15.225Z,14.22
2023-05-15T00:47:15.292Z,14.18
2023-05-15T00:48:15.236Z,14.27
2023-05-15T00:49:15.235Z,14.36
2023-05-15T00:50:15.239Z,14.39
2023-05-15T00:51:15.241Z,14.40
2023-05-15T00:52:15.232Z,14.43
2023-05-15T00:53:15.230Z,14.40
2023-05-15T00:54:15.274Z,14.42
2023-05-15T00:55:15.238Z,14.43
2023-05-15T00:56:15.230Z,14.45
2023-05-15T00:57:15.231Z,14.45
2023-05-15T00:58:15.233Z,14.43
2023-05-15T00:59:15.233Z,14.47
2023-05-15T01:00:15.231Z,14.43
2023-05-15T01:01:15.266Z,14.40
2023-05-15T01:02:15.264Z,14.43
2023-05-15T01:03:15.298Z,14.36
2023-05-15T01:04:15.232Z,14.35
2023-05-15T01:05:15.243Z,14.35
2023-05-15T01:06:15.233Z,14.36
2023-05-15T01:07:15.242Z,14.21
2023-05-15T01:08:15.233Z,14.27
2023-05-15T01:09:15.249Z,14.25
2023-05-15T01:10:15.251Z,14.27
2023-05-15T01:11:15.236Z,14.15
2023-05-15T01:12:15.236Z,14.15
2023-05-15T01:13:15.233Z,14.07
2023-05-15T01:14:15.230Z,14.04
2023-05-15T01:15:15.233Z,13.97
2023-05-15T01:16:15.236Z,13.84
2023-05-15T01:17:15.230Z,13.77
2023-05-15T01:18:15.323Z,13.78
2023-05-15T01:19:15.343Z,13.69
2023-05-15T01:20:15.237Z,13.78
2023-05-15T01:21:15.236Z,13.77
2023-05-15T01:22:15.230Z,13.78
2023-05-15T01:23:15.235Z,13.77
2023-05-15T01:24:15.229Z,13.85
2023-05-15T01:25:15.235Z,13.85
2023-05-15T01:26:15.255Z,13.85
2023-05-15T01:27:15.233Z,13.87
2023-05-15T01:28:15.246Z,13.81
2023-05-15T01:29:15.233Z,13.81
2023-05-15T01:30:15.230Z,13.77
2023-05-15T01:31:15.236Z,13.75
2023-05-15T01:32:17.772Z,13.81
2023-05-15T01:33:15.309Z,13.77
2023-05-15T01:34:15.241Z,13.81
2023-05-15T01:35:15.231Z,13.89
2023-05-15T01:36:15.236Z,13.81
2023-05-15T01:37:15.234Z,13.87
2023-05-15T01:38:15.234Z,13.89
2023-05-15T01:39:15.236Z,13.87
2023-05-15T01:40:15.233Z,13.88
2023-05-15T01:41:15.235Z,14.04
2023-05-15T01:42:15.255Z,13.95
2023-05-15T01:43:15.234Z,13.95
2023-05-15T01:44:15.243Z,14.00
2023-05-15T01:45:15.235Z,13.95
2023-05-15T01:46:15.265Z,13.97
2023-05-15T01:47:15.237Z,14.09
2023-05-15T01:48:15.232Z,14.06
2023-05-15T01:49:15.227Z,13.92
2023-05-15T01:50:15.248Z,13.92
2023-05-15T01:51:15.239Z,13.88
2023-05-15T01:52:15.239Z,13.92
2023-05-15T01:53:15.234Z,13.95
2023-05-15T01:54:15.228Z,13.87
2023-05-15T01:55:15.241Z,13.92
2023-05-15T01:56:15.227Z,13.97
2023-05-15T01:57:15.552Z,13.91
2023-05-15T01:58:15.298Z,13.87
2023-05-15T01:59:15.234Z,13.84
2023-05-15T02:00:15.229Z,13.85
2023-05-15T02:01:15.262Z,13.67
2023-05-15T02:02:15.227Z,13.82
2023-05-15T02:03:15.287Z,13.75
2023-05-15T02:04:15.228Z,13.78
2023-05-15T02:05:15.237Z,13.64
2023-05-15T02:06:15.232Z,13.57
2023-05-15T02:07:15.231Z,13.49
2023-05-15T02:08:15.229Z,13.54
2023-05-15T02:09:15.227Z,13.52
2023-05-15T02:10:15.241Z,13.36
2023-05-15T02:11:15.238Z,13.39
2023-05-15T02:12:15.245Z,13.38
2023-05-15T02:13:15.236Z,13.30
2023-05-15T02:14:15.247Z,13.23
2023-05-15T02:15:15.229Z,13.30
2023-05-15T02:16:15.263Z,13.23
2023-05-15T02:17:15.248Z,13.26
2023-05-15T02:18:15.228Z,13.15
2023-05-15T02:19:15.296Z,13.19
2023-05-15T02:20:15.229Z,13.14
2023-05-15T02:21:15.248Z,13.14
2023-05-15T02:22:15.226Z,13.03
2023-05-15T02:23:15.241Z,13.03
2023-05-15T02:24:15.228Z,13.00
2023-05-15T02:25:15.226Z,12.89
2023-05-15T02:26:15.227Z,12.92
2023-05-15T02:27:15.229Z,13.00
2023-05-15T02:28:15.228Z,12.89
2023-05-15T02:29:15.232Z,12.93
2023-05-15T02:30:15.249Z,12.78
2023-05-15T02:31:15.251Z,12.83
2023-05-15T02:32:15.259Z,12.78
2023-05-15T02:33:15.234Z,12.79
2023-05-15T02:34:15.223Z,12.74
2023-05-15T02:35:15.237Z,12.75
2023-05-15T02:36:15.228Z,12.83
2023-05-15T02:37:15.231Z,12.82
2023-05-15T02:38:15.223Z,12.86
2023-05-15T02:39:15.228Z,12.95
2023-05-15T02:40:15.234Z,13.00
2023-05-15T02:41:15.225Z,13.01
2023-05-15T02:42:15.224Z,13.08
2023-05-15T02:43:15.226Z,13.03
2023-05-15T02:44:15.220Z,13.03
2023-05-15T02:45:15.230Z,13.07
2023-05-15T02:46:15.312Z,13.03
2023-05-15T02:47:15.237Z,13.19
2023-05-15T02:48:15.226Z,13.23
2023-05-15T02:49:15.223Z,13.17
2023-05-15T02:50:15.234Z,13.26
2023-05-15T02:51:15.232Z,13.30
2023-05-15T02:52:15.246Z,13.32
2023-05-15T02:53:15.223Z,13.26
2023-05-15T02:54:15.291Z,13.25
2023-05-15T02:55:15.221Z,13.30
2023-05-15T02:56:15.227Z,13.25
2023-05-15T02:57:15.239Z,13.26
2023-05-15T02:58:15.218Z,13.20
2023-05-15T02:59:15.227Z,13.26
2023-05-15T03:00:15.223Z,13.26
2023-05-15T03:01:15.269Z,13.23
2023-05-15T03:02:15.311Z,13.25
2023-05-15T03:03:15.226Z,13.22
2023-05-15T03:04:15.254Z,13.17
2023-05-15T03:05:15.242Z,13.20
2023-05-15T03:06:15.220Z,13.08
2023-05-15T03:07:15.221Z,13.05
2023-05-15T03:08:15.211Z,13.08
2023-05-15T03:09:15.223Z,12.92
2023-05-15T03:10:15.221Z,13.03
2023-05-15T03:11:15.224Z,13.00
2023-05-15T03:12:15.213Z,13.00
2023-05-15T03:13:15.224Z,12.97
2023-05-15T03:14:15.213Z,13.15
2023-05-15T03:15:15.216Z,13.03
2023-05-15T03:16:15.215Z,13.12
2023-05-15T03:17:15.280Z,13.14
2023-05-15T03:18:17.262Z,13.08
2023-05-15T03:19:15.375Z,13.07
2023-05-15T03:20:15.226Z,13.08
2023-05-15T03:21:15.209Z,13.07
2023-05-15T03:22:15.217Z,13.12
2023-05-15T03:23:15.213Z,13.05
2023-05-15T03:24:15.220Z,13.11
2023-05-15T03:25:15.209Z,13.01
2023-05-15T03:26:15.220Z,13.12
2023-05-15T03:27:15.211Z,13.05
2023-05-15T03:28:15.218Z,13.01
2023-05-15T03:29:15.211Z,13.00
2023-05-15T03:30:15.212Z,12.89
2023-05-15T03:31:15.227Z,12.75
2023-05-15T03:32:15.212Z,12.75
2023-05-15T03:33:15.207Z,12.70
2023-05-15T03:34:15.233Z,12.68
2023-05-15T03:35:15.220Z,12.68
2023-05-15T03:36:15.211Z,12.75
2023-05-15T03:37:15.212Z,12.82
2023-05-15T03:38:15.210Z,12.85
2023-05-15T03:39:15.217Z,12.85
2023-05-15T03:40:15.207Z,12.95
2023-05-15T03:41:15.208Z,12.97
2023-05-15T03:42:15.221Z,13.05
2023-05-15T03:43:15.247Z,13.12
2023-05-15T03:44:15.210Z,13.11
2023-05-15T03:45:15.211Z,13.20
2023-05-15T03:46:15.691Z,13.28
2023-05-15T03:47:15.204Z,13.25
2023-05-15T03:48:47.078Z,13.28
2023-05-15T03:49:47.100Z,13.29
2023-05-15T03:50:47.087Z,13.25
2023-05-15T03:51:47.084Z,13.20
2023-05-15T03:52:47.080Z,13.20
2023-05-15T03:53:47.078Z,13.10
2023-05-15T03:54:47.075Z,13.08
2023-05-15T03:55:47.084Z,13.17
2023-05-15T03:56:47.080Z,13.08
2023-05-15T03:57:47.086Z,13.12
2023-05-15T03:58:47.080Z,13.22
2023-05-15T03:59:47.082Z,13.28
2023-05-15T04:00:47.096Z,13.30
2023-05-15T04:02:02.761Z,13.28
2023-05-15T04:02:47.278Z,13.29
2023-05-15T04:03:47.084Z,13.26
2023-05-15T04:04:47.108Z,13.26
2023-05-15T04:05:47.103Z,13.30
2023-05-15T04:06:47.076Z,13.33
2023-05-15T04:07:47.079Z,13.36
2023-05-15T04:08:47.076Z,13.32
2023-05-15T04:09:47.085Z,13.29
2023-05-15T04:10:47.074Z,13.39
2023-05-15T04:11:47.076Z,13.28
2023-05-15T04:12:47.074Z,13.26
2023-05-15T04:13:47.080Z,13.25
2023-05-15T04:14:47.081Z,13.26
2023-05-15T04:15:47.073Z,13.26
2023-05-15T04:16:47.155Z,13.30
2023-05-15T04:17:47.111Z,13.30
2023-05-15T04:18:47.138Z,13.39
2023-05-15T04:19:47.080Z,13.48
2023-05-15T04:20:47.076Z,13.41
2023-05-15T04:21:47.099Z,13.55
2023-05-15T04:22:47.068Z,13.52
2023-05-15T04:23:47.074Z,13.57
2023-05-15T04:24:47.067Z,13.60
2023-05-15T04:25:47.111Z,13.57
2023-05-15T04:26:47.106Z,13.59
2023-05-15T04:27:47.094Z,13.66
2023-05-15T04:29:00.228Z,13.62
2023-05-15T04:29:47.071Z,13.62
2023-05-15T04:30:47.066Z,13.67
2023-05-15T04:31:47.158Z,13.75
2023-05-15T04:32:47.118Z,13.79
2023-05-15T04:33:48.227Z,13.78
2023-05-15T04:34:47.064Z,13.84
2023-05-15T04:35:47.072Z,13.89
2023-05-15T04:36:47.064Z,13.85
2023-05-15T04:37:47.169Z,13.81
2023-05-15T04:38:47.061Z,13.96
2023-05-15T04:39:47.072Z,13.96
2023-05-15T04:40:47.170Z,13.96
2023-05-15T04:41:47.069Z,14.02
2023-05-15T04:42:47.066Z,14.06
2023-05-15T04:43:47.068Z,14.09
2023-05-15T04:44:47.060Z,14.18
2023-05-15T04:45:47.097Z,14.27
2023-05-15T04:46:47.064Z,14.18
2023-05-15T04:47:47.077Z,14.24
2023-05-15T04:48:47.068Z,14.42
2023-05-15T04:49:47.068Z,14.47
2023-05-15T04:50:47.058Z,14.60
2023-05-15T04:51:47.067Z,14.60
2023-05-15T04:52:47.062Z,14.77
2023-05-15T04:53:47.090Z,14.80
2023-05-15T04:54:47.058Z,14.86
2023-05-15T04:55:47.063Z,14.96
2023-05-15T04:56:47.057Z,15.06
2023-05-15T04:57:47.058Z,15.02
2023-05-15T04:58:47.058Z,15.10
2023-05-15T04:59:47.069Z,15.21
2023-05-15T05:00:47.060Z,15.35
2023-05-15T05:01:47.159Z,15.36
2023-05-15T05:02:47.127Z,15.51
2023-05-15T05:03:47.089Z,15.59
2023-05-15T05:04:47.056Z,15.62
2023-05-15T05:05:47.064Z,15.75
2023-05-15T05:06:47.058Z,15.72
2023-05-15T05:07:47.062Z,15.89
2023-05-15T05:08:47.060Z,15.87
2023-05-15T05:09:47.094Z,15.78
2023-05-15T05:10:47.058Z,15.92
2023-05-15T05:11:47.066Z,16.00
2023-05-15T05:12:47.061Z,15.97
2023-05-15T05:13:47.066Z,16.02
2023-05-15T05:14:47.068Z,16.08
2023-05-15T05:15:47.076Z,16.14
2023-05-15T05:16:47.060Z,16.14
2023-05-15T05:17:47.115Z,16.12
2023-05-15T05:18:47.117Z,16.14
2023-05-15T05:19:47.067Z,16.15
2023-05-15T05:20:47.065Z,16.24
2023-05-15T05:21:47.081Z,16.21
2023-05-15T05:22:47.068Z,16.31
2023-05-15T05:23:47.075Z,16.39
2023-05-15T05:24:47.063Z,16.30
2023-05-15T05:25:47.094Z,16.45
2023-05-15T05:26:47.075Z,16.33
2023-05-15T05:27:47.065Z,16.33
2023-05-15T05:28:47.065Z,16.43
2023-05-15T05:29:47.062Z,16.39
2023-05-15T05:30:47.066Z,16.38
2023-05-15T05:31:47.199Z,16.46
2023-05-15T05:32:47.138Z,16.39
2023-05-15T05:33:47.061Z,16.41
2023-05-15T05:34:47.068Z,16.48
2023-05-15T05:35:47.069Z,16.49
2023-05-15T05:36:47.065Z,16.42
2023-05-15T05:37:47.070Z,16.49
2023-05-15T05:38:47.065Z,16.58
2023-05-15T05:39:47.091Z,16.60
2023-05-15T05:40:47.064Z,16.66
2023-05-15T05:41:47.093Z,16.63
2023-05-15T05:42:47.062Z,16.66
2023-05-15T05:43:47.068Z,16.63
2023-05-15T05:44:47.060Z,16.63
2023-05-15T05:45:47.066Z,16.66
2023-05-15T05:46:47.101Z,16.67
2023-05-15T05:47:47.095Z,16.76
2023-05-15T05:48:47.062Z,16.83
2023-05-15T05:49:47.071Z,16.86
2023-05-15T05:50:47.060Z,16.86
2023-05-15T05:51:47.077Z,17.01
2023-05-15T05:52:47.068Z,17.03
2023-05-15T05:53:47.076Z,17.14
2023-05-15T05:54:47.063Z,17.14
2023-05-15T05:55:47.061Z,17.19
2023-05-15T05:56:47.071Z,17.21
2023-05-15T05:57:47.103Z,17.30
2023-05-15T05:58:47.060Z,17.34
2023-05-15T05:59:47.071Z,17.41
2023-05-15T06:00:47.073Z,17.46
2023-05-15T06:01:47.081Z,17.49
2023-05-15T06:02:47.193Z,17.51
2023-05-15T06:03:47.191Z,17.52
2023-05-15T06:04:47.064Z,17.68
2023-05-15T06:05:47.072Z,17.71
2023-05-15T06:06:47.063Z,17.77
2023-05-15T06:07:47.067Z,17.89
2023-05-15T06:08:47.060Z,17.82
2023-05-15T06:09:47.073Z,17.97
2023-05-15T06:10:47.069Z,17.95
2023-05-15T06:11:47.074Z,17.97
2023-05-15T06:12:47.067Z,18.10
2023-05-15T06:13:47.090Z,18.11
2023-05-15T06:14:47.066Z,18.11
2023-05-15T06:15:47.070Z,18.17
2023-05-15T06:16:47.100Z,18.14
2023-05-15T06:17:47.100Z,18.25
2023-05-15T06:18:47.096Z,18.27
2023-05-15T06:19:47.071Z,18.33
2023-05-15T06:20:47.077Z,18.35
2023-05-15T06:21:47.072Z,18.36
2023-05-15T06:22:47.066Z,18.36
2023-05-15T06:23:47.078Z,18.39
2023-05-15T06:24:47.068Z,18.41
2023-05-15T06:25:47.073Z,18.44
2023-05-15T06:26:47.078Z,18.47
2023-05-15T06:27:47.076Z,18.52
2023-05-15T06:28:47.074Z,18.67
2023-05-15T06:29:47.257Z,18.65
2023-05-15T06:30:47.096Z,18.70
2023-05-15T06:31:47.079Z,18.75
2023-05-15T06:32:47.173Z,18.84
2023-05-15T06:33:47.084Z,18.85
2023-05-15T06:34:47.076Z,18.92
2023-05-15T06:35:47.081Z,19.00
2023-05-15T06:36:47.085Z,18.95
2023-05-15T06:37:47.081Z,19.08
2023-05-15T06:38:47.079Z,18.99
2023-05-15T06:39:47.088Z,19.11
2023-05-15T06:40:47.095Z,19.14
2023-05-15T06:41:47.087Z,19.41
2023-05-15T06:42:47.088Z,19.51
2023-05-15T06:43:47.088Z,19.58
2023-05-15T06:44:47.088Z,19.69
2023-05-15T06:45:47.432Z,19.78
2023-05-15T06:46:47.182Z,19.92
2023-05-15T06:47:47.162Z,20.01
2023-05-15T06:48:47.096Z,19.98
2023-05-15T06:49:47.104Z,20.10
2023-05-15T06:50:47.093Z,20.06
2023-05-15T06:51:47.092Z,20.05
2023-05-15T06:52:47.098Z,20.20
2023-05-15T06:53:47.098Z,20.21
2023-05-15T06:54:47.103Z,20.24
2023-05-15T06:55:47.105Z,20.17
2023-05-15T06:56:47.093Z,20.14
2023-05-15T06:57:47.114Z,20.28
2023-05-15T06:58:47.115Z,20.28
2023-05-15T06:59:47.100Z,20.29
2023-05-15T07:00:47.117Z,20.24
2023-05-15T07:01:47.458Z,20.24
2023-05-15T07:02:47.159Z,20.31
2023-05-15T07:03:47.103Z,20.33
2023-05-15T07:04:47.170Z,20.26
2023-05-15T07:05:47.105Z,20.26
2023-05-15T07:06:47.112Z,20.28
2023-05-15T07:07:47.103Z,20.32
2023-05-15T07:08:47.104Z,20.29
2023-05-15T07:09:47.109Z,20.32
2023-05-15T07:10:47.105Z,20.29
2023-05-15T07:11:47.110Z,20.28
2023-05-15T07:12:47.112Z,20.31
2023-05-15T07:13:47.128Z,20.36
2023-05-15T07:14:47.105Z,20.24
2023-05-15T07:15:47.110Z,20.39
2023-05-15T07:16:47.165Z,20.26
2023-05-15T07:17:47.332Z,20.26
2023-05-15T07:18:47.199Z,20.32
2023-05-15T07:19:47.115Z,20.32
2023-05-15T07:20:47.112Z,20.28
2023-05-15T07:21:47.114Z,20.23
2023-05-15T07:22:55.549Z,20.26
2023-05-15T07:23:47.125Z,20.35
2023-05-15T07:24:47.126Z,20.33
2023-05-15T07:25:47.134Z,20.24
2023-05-15T07:26:58.237Z,20.33
2023-05-15T07:27:47.131Z,20.32
2023-05-15T07:28:47.118Z,20.33
2023-05-15T07:29:47.128Z,20.36
2023-05-15T07:30:47.133Z,20.33
2023-05-15T07:31:47.168Z,20.36
2023-05-15T07:32:47.139Z,20.43
2023-05-15T07:33:47.246Z,20.51
2023-05-15T07:34:47.179Z,20.55
2023-05-15T07:35:47.134Z,20.62
2023-05-15T07:36:47.139Z,20.66
2023-05-15T07:37:47.190Z,20.58
2023-05-15T07:38:47.139Z,20.57
2023-05-15T07:39:47.173Z,20.85
2023-05-15T07:40:47.130Z,20.73
2023-05-15T07:41:47.146Z,20.85
2023-05-15T07:42:47.129Z,20.91
2023-05-15T07:43:47.135Z,20.95
2023-05-15T07:44:49.462Z,21.06
2023-05-15T07:45:47.261Z,21.13
2023-05-15T07:46:47.180Z,21.21
2023-05-15T07:47:47.288Z,21.13
2023-05-15T07:48:47.134Z,21.24
2023-05-15T07:49:47.442Z,21.19
2023-05-15T07:50:47.137Z,21.19
2023-05-15T07:51:47.142Z,21.27
2023-05-15T07:52:47.135Z,21.25
2023-05-15T07:53:47.141Z,21.22
2023-05-15T07:54:47.147Z,21.27
2023-05-15T07:55:47.158Z,21.29
2023-05-15T07:56:47.188Z,21.21
2023-05-15T07:57:53.572Z,21.35
2023-05-15T07:58:47.155Z,21.34
2023-05-15T07:59:47.150Z,21.34
2023-05-15T08:00:47.154Z,21.31
2023-05-15T08:01:47.149Z,21.37
2023-05-15T08:02:47.272Z,21.31
2023-05-15T08:03:47.245Z,21.34
2023-05-15T08:04:47.158Z,21.28
2023-05-15T08:05:47.239Z,21.34
2023-05-15T08:06:47.157Z,21.25
2023-05-15T08:07:47.155Z,21.32
2023-05-15T08:08:47.158Z,21.34
2023-05-15T08:09:47.153Z,21.40
2023-05-15T08:10:47.163Z,21.35
2023-05-15T08:11:47.165Z,21.35
2023-05-15T08:12:47.160Z,21.35
2023-05-15T08:13:47.173Z,21.37
2023-05-15T08:14:47.309Z,21.37
2023-05-15T08:15:47.186Z,21.37
2023-05-15T08:16:47.164Z,21.37
2023-05-15T08:17:47.198Z,21.44
2023-05-15T08:18:47.182Z,21.34
2023-05-15T08:19:47.175Z,21.37
2023-05-15T08:20:47.174Z,21.31
2023-05-15T08:21:47.288Z,21.38
2023-05-15T08:22:47.175Z,21.35
2023-05-15T08:23:47.179Z,21.32
2023-05-15T08:24:47.178Z,21.32
2023-05-15T08:25:47.176Z,21.35
2023-05-15T08:26:47.178Z,21.40
2023-05-15T08:27:47.190Z,21.42
2023-05-15T08:28:47.180Z,21.31
2023-05-15T08:29:47.175Z,21.42
2023-05-15T08:30:47.188Z,21.34
2023-05-15T08:31:47.344Z,21.42
2023-05-15T08:32:47.227Z,21.29
2023-05-15T08:33:47.187Z,21.27
2023-05-15T08:34:47.185Z,21.29
2023-05-15T08:35:47.257Z,21.25
2023-05-15T08:36:47.189Z,21.29
2023-05-15T08:37:47.208Z,21.28
2023-05-15T08:38:47.188Z,21.32
2023-05-15T08:39:47.188Z,21.28
2023-05-15T08:40:47.217Z,21.27
2023-05-15T08:41:47.201Z,21.34
2023-05-15T08:42:47.197Z,21.25
2023-05-15T08:43:47.192Z,21.19
2023-05-15T08:44:47.200Z,21.22
2023-05-15T08:45:47.195Z,21.22
2023-05-15T08:46:47.206Z,21.28
2023-05-15T08:47:47.257Z,21.28
2023-05-15T08:48:47.222Z,21.32
2023-05-15T08:49:47.200Z,21.31
2023-05-15T08:50:47.230Z,21.25
2023-05-15T08:51:47.207Z,21.32
2023-05-15T08:52:47.206Z,21.22
2023-05-15T08:53:47.229Z,21.28
2023-05-15T08:54:48.453Z,21.32
2023-05-15T08:55:47.208Z,21.35
2023-05-15T08:56:47.217Z,21.34
2023-05-15T08:57:47.212Z,21.31
2023-05-15T08:58:47.217Z,21.35
2023-05-15T08:59:47.222Z,21.37
2023-05-15T09:00:47.218Z,21.37
2023-05-15T09:01:47.240Z,21.37
2023-05-15T09:02:47.279Z,21.28
2023-05-15T09:03:47.260Z,21.31
2023-05-15T09:04:47.219Z,21.25
2023-05-15T09:05:47.219Z,21.34
2023-05-15T09:06:47.225Z,21.25
2023-05-15T09:07:47.221Z,21.21
2023-05-15T09:08:47.224Z,21.22
2023-05-15T09:09:47.247Z,21.21
2023-05-15T09:10:47.230Z,21.17
2023-05-15T09:11:47.234Z,21.19
2023-05-15T09:12:47.250Z,21.14
2023-05-15T09:13:47.230Z,21.10
2023-05-15T09:14:47.241Z,21.14
2023-05-15T09:15:47.240Z,21.17
2023-05-15T09:16:47.318Z,21.17
2023-05-15T09:17:47.269Z,21.22
2023-05-15T09:18:47.283Z,21.19
2023-05-15T09:19:47.237Z,21.17
2023-05-15T09:20:47.239Z,21.17
2023-05-15T09:21:47.253Z,21.27
2023-05-15T09:22:47.248Z,21.17
2023-05-15T09:23:47.242Z,21.25
2023-05-15T09:24:47.246Z,21.29
2023-05-15T09:25:47.278Z,21.27
2023-05-15T09:26:47.248Z,21.27
2023-05-15T09:27:47.251Z,21.24
2023-05-15T09:28:47.246Z,21.28
2023-05-15T09:29:47.257Z,21.27
2023-05-15T09:30:47.250Z,21.27
2023-05-15T09:31:47.267Z,21.24
2023-05-15T09:32:47.319Z,21.25
2023-05-15T09:33:47.252Z,21.25
2023-05-15T09:34:47.271Z,21.28
2023-05-15T09:35:47.262Z,21.29
2023-05-15T09:36:47.264Z,21.37
2023-05-15T09:37:47.255Z,21.42
2023-05-15T09:38:47.279Z,21.32
2023-05-15T09:39:47.260Z,21.35
2023-05-15T09:40:47.266Z,21.43
2023-05-15T09:41:47.317Z,21.46
2023-05-15T09:42:47.267Z,21.53
2023-05-15T09:43:47.267Z,21.52
2023-05-15T09:44:47.267Z,21.50
2023-05-15T09:45:47.260Z,21.67
2023-05-15T09:46:47.386Z,21.54
2023-05-15T09:47:47.404Z,21.61
2023-05-15T09:48:47.377Z,21.61
2023-05-15T09:49:47.269Z,21.56
2023-05-15T09:50:47.275Z,21.59
2023-05-15T09:51:47.289Z,21.65
2023-05-15T09:52:47.292Z,21.62
2023-05-15T09:53:47.279Z,21.59
2023-05-15T09:54:50.135Z,21.67
2023-05-15T09:55:47.281Z,21.72
2023-05-15T09:56:47.302Z,21.59
2023-05-15T09:57:47.313Z,21.74
2023-05-15T09:58:47.336Z,21.72
2023-05-15T09:59:47.306Z,21.79
2023-05-15T10:00:49.471Z,21.75
2023-05-15T10:01:47.332Z,21.72
2023-05-15T10:02:47.323Z,21.74
2023-05-15T10:03:47.290Z,21.91
2023-05-15T10:04:47.301Z,21.90
2023-05-15T10:05:47.374Z,21.88
2023-05-15T10:06:47.296Z,21.88
2023-05-15T10:07:47.305Z,21.92
2023-05-15T10:08:47.305Z,21.91
2023-05-15T10:09:47.306Z,22.03
2023-05-15T10:10:47.299Z,21.99
2023-05-15T10:11:47.298Z,22.07
2023-05-15T10:12:48.411Z,22.03
2023-05-15T10:13:47.327Z,22.06
2023-05-15T10:14:47.312Z,22.07
2023-05-15T10:15:47.340Z,22.09
2023-05-15T10:16:47.314Z,22.07
2023-05-15T10:17:47.325Z,22.14
2023-05-15T10:18:47.353Z,22.15
2023-05-15T10:19:57.257Z,22.14
2023-05-15T10:20:47.368Z,22.18
2023-05-15T10:21:47.316Z,22.17
2023-05-15T10:22:47.325Z,22.20
2023-05-15T10:23:47.311Z,22.18
2023-05-15T10:24:47.317Z,22.27
2023-05-15T10:25:47.327Z,22.21
2023-05-15T10:26:47.323Z,22.25
2023-05-15T10:27:47.323Z,22.25
2023-05-15T10:28:47.329Z,22.33
2023-05-15T10:29:47.342Z,22.31
2023-05-15T10:30:47.323Z,22.33
2023-05-15T10:31:47.401Z,22.47
2023-05-15T10:32:47.362Z,22.42
2023-05-15T10:33:47.340Z,22.45
2023-05-15T10:34:47.333Z,22.45
2023-05-15T10:35:47.349Z,22.43
2023-05-15T10:36:47.337Z,22.43
2023-05-15T10:37:47.334Z,22.45
2023-05-15T10:38:47.339Z,22.52
2023-05-15T10:39:47.344Z,22.49
2023-05-15T10:40:47.344Z,22.60
2023-05-15T10:41:47.342Z,22.62
2023-05-15T10:42:47.345Z,22.61
2023-05-15T10:43:47.354Z,22.58
2023-05-15T10:44:47.348Z,22.62
2023-05-15T10:45:47.382Z,22.62
2023-05-15T10:46:47.411Z,22.73
2023-05-15T10:47:47.454Z,22.64
2023-05-15T10:48:47.358Z,22.68
2023-05-15T10:49:47.350Z,22.75
2023-05-15T10:50:47.354Z,22.75
2023-05-15T10:51:47.361Z,22.73
2023-05-15T10:52:47.362Z,22.72
2023-05-15T10:53:47.355Z,22.77
2023-05-15T10:54:47.368Z,22.82
2023-05-15T10:55:47.385Z,22.82
2023-05-15T10:56:47.885Z,22.88
2023-05-15T10:57:47.376Z,22.97
2023-05-15T10:58:47.374Z,23.02
2023-05-15T10:59:47.382Z,23.12
2023-05-15T11:00:47.432Z,23.20
2023-05-15T11:01:47.405Z,23.32
2023-05-15T11:02:47.401Z,23.32
2023-05-15T11:03:49.908Z,23.39
2023-05-15T11:04:47.450Z,23.54
2023-05-15T11:05:47.380Z,23.58
2023-05-15T11:06:47.376Z,23.73
2023-05-15T11:07:47.377Z,23.80
2023-05-15T11:08:47.381Z,23.95
2023-05-15T11:09:47.379Z,24.13
2023-05-15T11:10:47.405Z,24.10
2023-05-15T11:11:47.383Z,24.27
2023-05-15T11:12:47.388Z,24.34
2023-05-15T11:13:47.389Z,24.39
2023-05-15T11:14:47.397Z,24.47
2023-05-15T11:15:47.389Z,24.55
2023-05-15T11:16:47.470Z,24.60
2023-05-15T11:17:47.440Z,24.65
2023-05-15T11:18:47.412Z,24.88
2023-05-15T11:19:47.392Z,24.93
2023-05-15T11:20:47.401Z,25.15
2023-05-15T11:21:47.401Z,25.24
2023-05-15T11:22:47.404Z,25.33
2023-05-15T11:23:47.404Z,25.52
2023-05-15T11:24:47.415Z,25.69
2023-05-15T11:25:47.405Z,25.90
2023-05-15T11:26:47.411Z,25.98
2023-05-15T11:27:47.421Z,26.18
2023-05-15T11:28:47.438Z,26.36
2023-05-15T11:29:47.415Z,26.48
2023-05-15T11:30:47.426Z,26.58
2023-05-15T11:31:47.418Z,26.62
2023-05-15T11:32:47.497Z,27.10
2023-05-15T11:33:47.475Z,27.50
2023-05-15T11:34:47.430Z,28.02
2023-05-15T11:35:47.433Z,28.22
2023-05-15T11:36:47.444Z,28.49
2023-05-15T11:37:47.451Z,28.76
2023-05-15T11:38:47.447Z,29.06
2023-05-15T11:39:47.444Z,29.42
2023-05-15T11:40:47.447Z,29.89
2023-05-15T11:41:47.443Z,30.43
2023-05-15T11:42:47.452Z,30.53
2023-05-15T11:43:47.450Z,30.46
2023-05-15T11:44:47.454Z,30.45
2023-05-15T11:45:47.456Z,30.37
2023-05-15T11:46:47.502Z,30.39
2023-05-15T11:47:47.515Z,30.23
2023-05-15T11:48:47.477Z,30.13
2023-05-15T11:49:47.500Z,30.04
2023-05-15T11:50:47.498Z,29.85
2023-05-15T11:51:47.478Z,29.67
2023-05-15T11:52:47.498Z,29.74
2023-05-15T11:53:47.503Z,29.61
2023-05-15T11:54:47.493Z,30.02
2023-05-15T11:55:47.507Z,30.23
2023-05-15T11:56:47.508Z,30.75
2023-05-15T11:57:47.497Z,31.10
2023-05-15T11:58:47.513Z,31.53
2023-05-15T11:59:47.509Z,31.76
2023-05-15T12:00:47.528Z,32.04
2023-05-15T12:01:47.640Z,32.26
2023-05-15T12:02:47.634Z,32.25
2023-05-15T12:03:47.722Z,32.32
2023-05-15T12:04:47.559Z,32.32
2023-05-15T12:05:58.042Z,32.37
2023-05-15T12:06:47.563Z,32.41
2023-05-15T12:07:47.558Z,32.33
2023-05-15T12:08:47.549Z,32.30
2023-05-15T12:09:47.560Z,32.47
2023-05-15T12:10:47.561Z,32.65
2023-05-15T12:11:47.559Z,32.74
2023-05-15T12:12:47.575Z,32.67
2023-05-15T12:13:47.574Z,32.69
2023-05-15T12:14:47.604Z,32.40
2023-05-15T12:15:47.617Z,32.35
2023-05-15T12:16:47.655Z,32.32
2023-05-15T12:17:47.603Z,32.37
2023-05-15T12:18:47.683Z,32.18
2023-05-15T12:19:47.610Z,32.14
2023-05-15T12:20:47.619Z,31.91
2023-05-15T12:21:47.646Z,31.95
2023-05-15T12:22:47.627Z,31.58
2023-05-15T12:23:59.493Z,31.51
2023-05-15T12:24:47.633Z,31.53
2023-05-15T12:25:47.643Z,31.54
2023-05-15T12:26:47.646Z,31.50
2023-05-15T12:27:47.650Z,31.36
2023-05-15T12:28:47.656Z,31.16
2023-05-15T12:29:47.672Z,30.95
2023-05-15T12:30:47.688Z,30.88
2023-05-15T12:31:47.724Z,30.64
2023-05-15T12:32:47.735Z,30.47
2023-05-15T12:33:47.687Z,30.27
2023-05-15T12:34:47.692Z,30.16
2023-05-15T12:35:47.703Z,29.85
2023-05-15T12:36:47.698Z,29.58
2023-05-15T12:37:47.730Z,29.27
2023-05-15T12:38:47.717Z,29.12
2023-05-15T12:39:47.728Z,28.74
2023-05-15T12:40:47.723Z,28.61
2023-05-15T12:41:49.666Z,28.52
2023-05-15T12:42:47.734Z,28.39
2023-05-15T12:43:47.745Z,28.36
2023-05-15T12:44:47.744Z,28.22
2023-05-15T12:45:47.774Z,28.25
2023-05-15T12:46:47.779Z,28.29
2023-05-15T12:47:47.830Z,28.15
2023-05-15T12:48:47.774Z,28.19
2023-05-15T12:49:47.776Z,28.06
2023-05-15T12:50:47.783Z,28.00
2023-05-15T12:51:47.788Z,27.88
2023-05-15T12:52:47.792Z,27.69